createdAt,value
2018-08-11T00:00:16.886Z,1.00
2018-08-11T00:02:45.510Z,1.20
2018-08-11T00:05:13.982Z,1.05
2018-08-11T00:07:42.429Z,1.17
2018-08-11T00:10:10.971Z,0.80
2018-08-11T00:12:39.453Z,1.10
2018-08-11T00:15:11.290Z,1.40
2018-08-11T00:17:40.210Z,1.90
2018-08-11T00:20:11.439Z,1.30
2018-08-11T00:22:40.744Z,2.20
2018-08-11T00:25:17.037Z,1.40
2018-08-11T00:27:45.560Z,1.40
2018-08-11T00:30:16.459Z,1.60
2018-08-11T00:32:44.899Z,0.90
2018-08-11T00:35:14.393Z,1.40
2018-08-11T00:37:43.415Z,1.25
2018-08-11T00:40:15.886Z,1.00
2018-08-11T00:42:45.393Z,1.07
2018-08-11T00:45:14.934Z,1.00
2018-08-11T00:47:43.623Z,1.22
2018-08-11T00:50:16.939Z,1.20
2018-08-11T00:52:45.362Z,0.82
2018-08-11T00:55:14.424Z,0.93
2018-08-11T00:57:43.032Z,0.90
2018-08-11T01:00:14.172Z,0.90
2018-08-11T01:02:42.846Z,1.12
2018-08-11T01:05:14.390Z,1.05
2018-08-11T01:07:43.523Z,1.07
2018-08-11T01:10:12.553Z,1.00
2018-08-11T01:12:42.005Z,0.90
2018-08-11T01:15:12.604Z,1.37
2018-08-11T01:17:40.966Z,1.20
2018-08-11T01:20:10.623Z,1.10
2018-08-11T01:22:39.703Z,1.00
2018-08-11T01:25:08.525Z,1.10
2018-08-11T01:27:37.207Z,1.12
2018-08-11T01:30:07.957Z,1.22
2018-08-11T01:32:36.386Z,1.45
2018-08-11T01:35:05.493Z,1.50
2018-08-11T01:37:34.155Z,1.22
2018-08-11T01:40:02.555Z,1.40
2018-08-11T01:42:31.008Z,1.35
2018-08-11T01:44:59.353Z,1.90
2018-08-11T01:47:27.765Z,1.50
2018-08-11T01:49:56.170Z,1.32
2018-08-11T01:52:24.570Z,1.40
2018-08-11T01:54:53.105Z,1.45
2018-08-11T01:57:21.479Z,1.37
2018-08-11T01:59:49.841Z,1.50
2018-08-11T02:02:18.223Z,1.60
2018-08-11T02:04:46.615Z,1.80
2018-08-11T02:07:14.985Z,1.50
2018-08-11T02:09:43.369Z,1.32
2018-08-11T02:12:11.785Z,1.60
2018-08-11T02:14:40.154Z,1.50
2018-08-11T02:17:08.545Z,1.62
2018-08-11T02:19:36.997Z,1.52
2018-08-11T02:22:05.422Z,1.47
2018-08-11T02:24:33.841Z,1.60
2018-08-11T02:27:02.251Z,1.45
2018-08-11T02:29:30.614Z,1.30
2018-08-11T02:31:59.212Z,1.10
2018-08-11T02:34:27.640Z,1.30
2018-08-11T02:36:55.998Z,1.05
2018-08-11T02:39:24.393Z,1.10
2018-08-11T02:41:52.802Z,1.07
2018-08-11T02:44:21.170Z,1.45
2018-08-11T02:46:49.567Z,1.17
2018-08-11T02:49:17.987Z,0.90
2018-08-11T02:51:46.387Z,1.10
2018-08-11T02:54:14.803Z,1.10
2018-08-11T02:56:43.216Z,1.17
2018-08-11T02:59:11.629Z,1.17
2018-08-11T03:01:40.114Z,1.25
2018-08-11T03:04:08.469Z,1.35
2018-08-11T03:06:36.855Z,1.02
2018-08-11T03:09:07.739Z,1.30
2018-08-11T03:11:36.203Z,1.27
2018-08-11T03:14:04.991Z,0.90
2018-08-11T03:16:33.279Z,1.62
2018-08-11T03:19:01.718Z,1.42
2018-08-11T03:21:30.118Z,1.37
2018-08-11T03:23:58.478Z,1.35
2018-08-11T03:26:26.868Z,1.65
2018-08-11T03:28:55.253Z,1.80
2018-08-11T03:31:23.643Z,1.60
2018-08-11T03:33:52.031Z,1.32
2018-08-11T03:36:20.536Z,1.47
2018-08-11T03:38:48.954Z,1.72
2018-08-11T03:41:17.303Z,1.60
2018-08-11T03:43:45.793Z,1.70
2018-08-11T03:46:14.148Z,1.60
2018-08-11T03:48:42.574Z,1.60
2018-08-11T03:51:10.925Z,1.98
2018-08-11T03:53:39.400Z,1.60
2018-08-11T03:56:07.791Z,1.70
2018-08-11T03:58:36.198Z,1.83
2018-08-11T04:01:04.603Z,2.10
2018-08-11T04:03:33.027Z,1.67
2018-08-11T04:06:01.383Z,1.70
2018-08-11T04:08:29.801Z,1.70
2018-08-11T04:10:58.154Z,1.80
2018-08-11T04:13:26.539Z,1.80
2018-08-11T04:15:54.890Z,1.80
2018-08-11T04:18:23.266Z,1.45
2018-08-11T04:20:51.613Z,1.50
2018-08-11T04:23:19.982Z,1.67
2018-08-11T04:25:48.370Z,1.55
2018-08-11T04:28:16.806Z,1.60
2018-08-11T04:30:45.341Z,1.70
2018-08-11T04:33:13.722Z,1.45
2018-08-11T04:35:45.044Z,1.40
2018-08-11T04:38:13.419Z,1.67
2018-08-11T04:40:41.777Z,1.33
2018-08-11T04:43:10.148Z,1.50
2018-08-11T04:45:38.510Z,1.75
2018-08-11T04:48:06.942Z,1.60
2018-08-11T04:50:35.306Z,1.50
2018-08-11T04:53:03.759Z,1.30
2018-08-11T04:55:32.238Z,1.50
2018-08-11T04:58:00.601Z,1.50
2018-08-11T05:00:29.083Z,1.40
2018-08-11T05:02:57.483Z,1.50
2018-08-11T05:05:26.003Z,1.35
2018-08-11T05:07:54.425Z,1.47
2018-08-11T05:10:22.856Z,1.20
2018-08-11T05:12:51.257Z,1.30
2018-08-11T05:15:19.661Z,1.42
2018-08-11T05:17:48.053Z,1.55
2018-08-11T05:20:23.227Z,0.93
2018-08-11T05:22:51.633Z,1.12
2018-08-11T05:25:20.001Z,1.22
2018-08-11T05:27:48.474Z,1.10
2018-08-11T05:30:16.922Z,1.40
2018-08-11T05:32:45.281Z,1.32
2018-08-11T05:35:13.694Z,1.30
2018-08-11T05:37:42.274Z,1.40
2018-08-11T05:42:45.312Z,1.15
2018-08-11T05:45:13.920Z,0.98
2018-08-11T05:47:42.323Z,1.32
2018-08-11T05:50:10.716Z,1.25
2018-08-11T05:52:39.100Z,1.15
2018-08-11T05:55:07.576Z,1.00
2018-08-11T05:57:35.914Z,1.75
2018-08-11T06:00:06.441Z,1.22
2018-08-11T06:02:34.801Z,1.25
2018-08-11T06:05:03.279Z,1.37
2018-08-11T06:07:31.656Z,1.40
2018-08-11T06:10:00.238Z,1.20
2018-08-11T06:12:28.605Z,1.37
2018-08-11T06:14:57.003Z,1.00
2018-08-11T06:17:25.366Z,1.40
2018-08-11T06:19:53.837Z,1.30
2018-08-11T06:22:22.219Z,1.47
2018-08-11T06:24:50.608Z,1.35
2018-08-11T06:27:19.042Z,1.52
2018-08-11T06:29:47.450Z,1.30
2018-08-11T06:32:15.874Z,1.20
2018-08-11T06:34:44.402Z,1.00
2018-08-11T06:37:12.791Z,1.25
2018-08-11T06:39:41.192Z,1.47
2018-08-11T06:42:09.561Z,1.40
2018-08-11T06:44:37.959Z,1.50
2018-08-11T06:47:06.351Z,1.60
2018-08-11T06:49:34.779Z,1.42
2018-08-11T06:52:03.182Z,1.32
2018-08-11T06:54:31.572Z,1.30
2018-08-11T06:56:59.962Z,1.30
2018-08-11T06:59:28.350Z,1.35
2018-08-11T07:01:56.745Z,1.77
2018-08-11T07:04:25.209Z,1.40
2018-08-11T07:06:53.667Z,1.55
2018-08-11T07:09:22.225Z,1.55
2018-08-11T07:11:50.617Z,1.50
2018-08-11T07:14:18.975Z,1.67
2018-08-11T07:16:47.418Z,1.60
2018-08-11T07:19:16.063Z,1.42
2018-08-11T07:21:44.817Z,1.40
2018-08-11T07:24:13.180Z,1.37
2018-08-11T07:26:41.627Z,1.55
2018-08-11T07:29:09.967Z,1.62
2018-08-11T07:31:38.389Z,1.30
2018-08-11T07:34:06.779Z,1.50
2018-08-11T07:36:35.271Z,1.55
2018-08-11T07:39:04.182Z,1.30
2018-08-11T07:41:32.622Z,1.45
2018-08-11T07:44:01.073Z,1.60
2018-08-11T07:46:29.599Z,1.50
2018-08-11T07:48:57.998Z,1.67
2018-08-11T07:51:26.458Z,1.47
2018-08-11T07:53:54.971Z,1.72
2018-08-11T07:56:23.440Z,1.60
2018-08-11T07:58:51.819Z,1.70
2018-08-11T08:01:20.290Z,1.72
2018-08-11T08:03:48.667Z,1.67
2018-08-11T08:06:17.175Z,1.70
2018-08-11T08:08:45.564Z,1.32
2018-08-11T08:11:14.009Z,1.50
2018-08-11T08:13:42.573Z,1.30
2018-08-11T08:16:11.049Z,1.37
2018-08-11T08:18:39.487Z,1.50
2018-08-11T08:21:07.943Z,1.47
2018-08-11T08:23:36.399Z,1.62
2018-08-11T08:26:04.989Z,1.62
2018-08-11T08:28:33.448Z,1.60
2018-08-11T08:31:01.938Z,1.80
2018-08-11T08:33:30.697Z,2.27
2018-08-11T08:35:59.506Z,1.15
2018-08-11T08:38:28.224Z,1.40
2018-08-11T08:40:56.701Z,1.60
2018-08-11T08:43:25.231Z,1.65
2018-08-11T08:45:53.627Z,1.20
2018-08-11T08:48:22.042Z,1.20
2018-08-11T08:50:50.445Z,1.30
2018-08-11T08:53:19.016Z,1.22
2018-08-11T08:55:47.394Z,1.22
2018-08-11T08:58:15.791Z,1.40
2018-08-11T09:00:44.178Z,1.35
2018-08-11T09:03:12.639Z,1.30
2018-08-11T09:05:41.106Z,1.60
2018-08-11T09:08:09.738Z,1.27
2018-08-11T09:10:38.178Z,1.40
2018-08-11T09:13:07.032Z,1.17
2018-08-11T09:15:35.562Z,1.60
2018-08-11T09:18:03.996Z,1.37
2018-08-11T09:20:32.382Z,1.40
2018-08-11T09:23:00.793Z,1.30
2018-08-11T09:25:29.609Z,6.60
2018-08-11T09:27:58.071Z,1.70
2018-08-11T09:30:26.558Z,1.20
2018-08-11T09:32:55.098Z,1.15
2018-08-11T09:35:23.484Z,1.15
2018-08-11T09:37:51.882Z,1.47
2018-08-11T09:40:20.278Z,1.80
2018-08-11T09:42:48.717Z,1.10
2018-08-11T09:45:17.279Z,1.10
2018-08-11T09:47:45.751Z,1.20
2018-08-11T09:50:14.186Z,1.10
2018-08-11T09:52:42.778Z,1.00
2018-08-11T09:55:11.198Z,0.88
2018-08-11T09:57:39.625Z,1.00
2018-08-11T10:00:09.267Z,0.78
2018-08-11T10:02:37.715Z,0.90
2018-08-11T10:05:06.455Z,0.98
2018-08-11T10:07:35.067Z,0.85
2018-08-11T10:10:03.553Z,0.90
2018-08-11T10:12:31.993Z,0.80
2018-08-11T10:15:00.654Z,0.90
2018-08-11T10:17:29.429Z,0.80
2018-08-11T10:19:57.806Z,0.98
2018-08-11T10:22:26.206Z,0.90
2018-08-11T10:24:54.678Z,0.90
2018-08-11T10:27:23.085Z,0.80
2018-08-11T10:29:51.509Z,1.10
2018-08-11T10:32:19.912Z,1.00
2018-08-11T10:34:48.309Z,1.30
2018-08-11T10:37:16.686Z,1.10
2018-08-11T10:39:45.245Z,0.90
2018-08-11T10:42:13.682Z,0.80
2018-08-11T10:44:42.098Z,1.07
2018-08-11T10:47:10.611Z,1.00
2018-08-11T10:49:38.915Z,0.98
2018-08-11T10:52:07.361Z,0.90
2018-08-11T10:54:35.832Z,0.98
2018-08-11T10:58:07.253Z,1.05
2018-08-11T11:00:35.719Z,1.05
2018-08-11T11:03:04.796Z,1.20
2018-08-11T11:05:33.246Z,1.02
2018-08-11T11:08:01.606Z,1.35
2018-08-11T11:10:30.046Z,0.90
2018-08-11T11:12:58.494Z,0.93
2018-08-11T11:15:26.935Z,0.80
2018-08-11T11:17:55.426Z,0.80
2018-08-11T11:20:24.118Z,0.78
2018-08-11T11:22:52.612Z,0.98
2018-08-11T11:25:21.911Z,0.82
2018-08-11T11:27:50.591Z,1.82
2018-08-11T11:30:18.973Z,0.88
2018-08-11T11:32:47.404Z,0.93
2018-08-11T11:35:15.840Z,0.70
2018-08-11T11:37:44.302Z,0.80
2018-08-11T11:40:12.701Z,1.00
2018-08-11T11:42:41.252Z,0.70
2018-08-11T11:45:09.668Z,0.90
2018-08-11T11:47:38.205Z,1.07
2018-08-11T11:50:06.939Z,0.80
2018-08-11T11:52:35.350Z,0.88
2018-08-11T11:55:04.710Z,1.07
2018-08-11T11:57:33.158Z,1.57
2018-08-11T12:00:01.631Z,0.80
2018-08-11T12:02:30.141Z,1.07
2018-08-11T12:04:58.615Z,1.00
2018-08-11T12:07:27.122Z,0.88
2018-08-11T12:09:55.553Z,1.10
2018-08-11T12:12:24.001Z,0.93
2018-08-11T12:14:52.446Z,1.00
2018-08-11T12:17:20.884Z,0.95
2018-08-11T12:19:49.303Z,0.80
2018-08-11T12:22:17.780Z,0.85
2018-08-11T12:24:46.350Z,0.85
2018-08-11T12:27:15.111Z,0.90
2018-08-11T12:29:43.769Z,0.93
2018-08-11T12:32:12.188Z,0.80
2018-08-11T12:34:40.674Z,1.00
2018-08-11T12:37:09.110Z,0.95
2018-08-11T12:39:37.591Z,0.93
2018-08-11T12:42:06.065Z,0.85
2018-08-11T12:44:34.714Z,0.75
2018-08-11T12:47:03.812Z,0.95
2018-08-11T12:49:32.307Z,0.70
2018-08-11T12:52:00.713Z,0.75
2018-08-11T12:54:29.990Z,0.90
2018-08-11T12:56:58.631Z,1.07
2018-08-11T12:59:27.045Z,0.95
2018-08-11T13:01:55.573Z,1.00
2018-08-11T13:04:24.841Z,0.85
2018-08-11T13:06:55.028Z,0.80
2018-08-11T13:09:23.553Z,0.90
2018-08-11T13:11:52.231Z,1.02
2018-08-11T13:14:20.667Z,0.90
2018-08-11T13:16:49.396Z,0.90
2018-08-11T13:19:17.930Z,1.00
2018-08-11T13:21:46.387Z,0.90
2018-08-11T13:24:14.873Z,1.10
2018-08-11T13:26:43.341Z,0.98
2018-08-11T13:29:11.841Z,1.10
2018-08-11T13:31:40.295Z,0.90
2018-08-11T13:34:08.766Z,0.88
2018-08-11T13:36:37.349Z,1.02
2018-08-11T13:39:08.340Z,1.00
2018-08-11T13:41:46.381Z,1.10
2018-08-11T13:44:16.328Z,1.15
2018-08-11T13:46:44.762Z,1.40
2018-08-11T13:49:13.304Z,1.00
2018-08-11T13:51:42.810Z,0.90
2018-08-11T13:54:11.336Z,1.10
2018-08-11T13:56:39.977Z,0.80
2018-08-11T13:59:08.786Z,1.00
2018-08-11T14:01:37.270Z,1.10
2018-08-11T14:04:05.821Z,0.90
2018-08-11T14:06:34.466Z,0.98
2018-08-11T14:09:03.346Z,1.30
2018-08-11T14:11:31.794Z,0.90
2018-08-11T14:14:00.191Z,0.93
2018-08-11T14:16:28.665Z,1.00
2018-08-11T14:18:57.175Z,0.85
2018-08-11T14:21:25.595Z,1.10
2018-08-11T14:23:54.033Z,0.82
2018-08-11T14:26:22.498Z,1.35
2018-08-11T14:28:51.002Z,1.12
2018-08-11T14:31:19.495Z,1.00
2018-08-11T14:33:48.131Z,1.10
2018-08-11T14:36:16.605Z,1.00
2018-08-11T14:38:45.167Z,1.17
2018-08-11T14:41:13.579Z,0.90
2018-08-11T14:43:42.011Z,0.90
2018-08-11T14:46:10.534Z,1.05
2018-08-11T14:48:39.123Z,0.90
2018-08-11T14:51:07.631Z,1.30
2018-08-11T14:53:36.057Z,1.00
2018-08-11T14:56:04.725Z,1.10
2018-08-11T14:58:33.307Z,1.17
2018-08-11T15:01:01.910Z,1.10
2018-08-11T15:03:30.370Z,1.12
2018-08-11T15:05:58.791Z,1.00
2018-08-11T15:08:27.192Z,1.10
2018-08-11T15:10:55.784Z,1.10
2018-08-11T15:13:24.175Z,0.90
2018-08-11T15:15:52.699Z,1.00
2018-08-11T15:18:21.096Z,1.15
2018-08-11T15:20:49.598Z,1.27
2018-08-11T15:23:18.244Z,1.32
2018-08-11T15:25:46.751Z,1.52
2018-08-11T15:28:15.203Z,1.10
2018-08-11T15:30:43.629Z,1.10
2018-08-11T15:33:12.008Z,1.10
2018-08-11T15:35:40.450Z,1.07
2018-08-11T15:38:08.938Z,0.90
2018-08-11T15:40:37.384Z,0.82
2018-08-11T15:43:05.833Z,0.90
2018-08-11T15:45:34.267Z,1.10
2018-08-11T15:48:02.687Z,1.20
2018-08-11T15:50:31.148Z,1.30
2018-08-11T15:52:59.545Z,0.85
2018-08-11T15:55:28.147Z,0.88
2018-08-11T15:57:56.547Z,0.88
2018-08-11T16:00:25.148Z,0.70
2018-08-11T16:02:53.611Z,1.02
2018-08-11T16:05:22.214Z,0.98
2018-08-11T16:07:50.807Z,1.00
2018-08-11T16:10:19.212Z,0.80
2018-08-11T16:12:47.669Z,1.05
2018-08-11T16:15:16.130Z,1.10
2018-08-11T16:17:44.617Z,1.00
2018-08-11T16:20:13.033Z,1.00
2018-08-11T16:22:42.147Z,1.37
2018-08-11T16:25:10.578Z,1.22
2018-08-11T16:27:39.140Z,1.10
2018-08-11T16:31:21.545Z,1.07
2018-08-11T16:33:50.001Z,1.00
2018-08-11T16:36:18.523Z,1.10
2018-08-11T16:38:48.108Z,1.10
2018-08-11T16:41:16.565Z,1.40
2018-08-11T16:43:44.974Z,1.00
2018-08-11T16:46:13.375Z,1.12
2018-08-11T16:48:44.738Z,1.12
2018-08-11T16:51:15.943Z,1.40
2018-08-11T16:53:46.488Z,0.93
2018-08-11T16:56:15.337Z,1.25
2018-08-11T16:58:43.803Z,1.25
2018-08-11T17:01:12.242Z,1.20
2018-08-11T17:03:40.830Z,1.20
2018-08-11T17:07:34.485Z,1.20
2018-08-11T17:10:03.014Z,1.22
2018-08-11T17:12:31.428Z,1.35
2018-08-11T17:14:59.887Z,1.30
2018-08-11T17:17:28.272Z,1.00
2018-08-11T17:19:56.657Z,1.40
2018-08-11T17:22:25.090Z,1.25
2018-08-11T17:24:53.779Z,1.37
2018-08-11T17:27:22.186Z,1.25
2018-08-11T17:29:50.714Z,1.22
2018-08-11T17:32:19.149Z,1.10
2018-08-11T17:34:47.650Z,1.12
2018-08-11T17:37:16.125Z,1.30
2018-08-11T17:39:44.577Z,1.20
2018-08-11T17:42:13.011Z,1.50
2018-08-11T17:44:41.494Z,1.30
2018-08-11T17:47:09.948Z,1.10
2018-08-11T17:49:38.938Z,1.30
2018-08-11T17:52:07.537Z,1.37
2018-08-11T17:54:36.191Z,1.60
2018-08-11T17:57:04.643Z,1.22
2018-08-11T17:59:33.100Z,1.30
2018-08-11T18:02:01.526Z,1.50
2018-08-11T18:04:30.036Z,1.40
2018-08-11T18:06:58.554Z,1.77
2018-08-11T18:09:26.926Z,1.00
2018-08-11T18:11:55.359Z,1.30
2018-08-11T18:14:23.799Z,1.40
2018-08-11T18:16:52.281Z,1.30
2018-08-11T18:19:20.884Z,1.40
2018-08-11T18:21:49.374Z,1.60
2018-08-11T18:24:17.748Z,1.30
2018-08-11T18:26:46.490Z,1.50
2018-08-11T18:29:14.970Z,1.75
2018-08-11T18:31:43.922Z,1.50
2018-08-11T18:34:12.428Z,1.67
2018-08-11T18:36:40.897Z,1.90
2018-08-11T18:39:11.515Z,1.50
2018-08-11T18:41:40.666Z,1.70
2018-08-11T18:44:09.344Z,1.35
2018-08-11T18:46:38.165Z,1.50
2018-08-11T18:49:07.011Z,1.57
2018-08-11T18:51:35.559Z,1.67
2018-08-11T18:54:04.164Z,1.52
2018-08-11T18:56:32.657Z,1.30
2018-08-11T18:59:01.230Z,1.40
2018-08-11T19:01:29.713Z,1.80
2018-08-11T19:03:58.181Z,1.30
2018-08-11T19:06:26.766Z,1.30
2018-08-11T19:08:55.278Z,1.15
2018-08-11T19:11:23.772Z,1.40
2018-08-11T19:13:52.209Z,1.40
2018-08-11T19:16:20.715Z,1.35
2018-08-11T19:18:49.303Z,1.40
2018-08-11T19:21:17.735Z,1.55
2018-08-11T19:23:46.262Z,1.55
2018-08-11T19:26:14.820Z,1.65
2018-08-11T19:28:43.267Z,1.35
2018-08-11T19:31:11.771Z,1.35
2018-08-11T19:33:40.225Z,1.62
2018-08-11T19:36:08.718Z,1.17
2018-08-11T19:38:37.665Z,1.50
2018-08-11T19:41:06.167Z,1.42
2018-08-11T19:43:34.754Z,1.65
2018-08-11T19:46:03.198Z,1.55
2018-08-11T19:48:31.764Z,1.37
2018-08-11T19:51:00.256Z,1.40
2018-08-11T19:54:53.245Z,1.60
2018-08-11T19:57:22.227Z,1.30
2018-08-11T19:59:50.774Z,1.47
2018-08-11T20:02:19.195Z,1.50
2018-08-11T20:04:47.692Z,1.55
2018-08-11T20:07:16.176Z,1.12
2018-08-11T20:09:45.133Z,1.45
2018-08-11T20:12:13.675Z,1.70
2018-08-11T20:14:42.164Z,1.52
2018-08-11T20:17:10.679Z,1.47
2018-08-11T20:19:39.235Z,1.30
2018-08-11T20:22:14.466Z,1.50
2018-08-11T20:24:42.882Z,1.70
2018-08-11T20:27:15.129Z,1.72
2018-08-11T20:29:43.690Z,1.65
2018-08-11T20:32:13.979Z,1.90
2018-08-11T20:34:43.288Z,1.50
2018-08-11T20:37:13.004Z,1.50
2018-08-11T20:39:41.954Z,1.32
2018-08-11T20:42:10.680Z,1.47
2018-08-11T20:44:39.515Z,1.35
2018-08-11T20:47:08.193Z,1.95
2018-08-11T20:49:36.715Z,1.40
2018-08-11T20:52:05.405Z,1.57
2018-08-11T20:54:34.315Z,1.62
2018-08-11T20:57:04.922Z,1.60
2018-08-11T20:59:37.701Z,2.00
2018-08-11T21:02:06.574Z,1.60
2018-08-11T21:04:36.324Z,1.70
2018-08-11T21:07:05.000Z,1.40
2018-08-11T21:09:33.470Z,1.62
2018-08-11T21:12:02.033Z,1.92
2018-08-11T21:14:30.548Z,1.80
2018-08-11T21:16:59.564Z,1.70
2018-08-11T21:19:28.062Z,1.57
2018-08-11T21:21:56.612Z,1.85
2018-08-11T21:24:31.570Z,1.70
2018-08-11T21:27:00.034Z,1.32
2018-08-11T21:29:28.504Z,1.57
2018-08-11T21:31:57.082Z,1.40
2018-08-11T21:34:25.566Z,3.37
2018-08-11T21:36:54.044Z,1.70
2018-08-11T21:39:22.481Z,2.60
2018-08-11T21:41:50.938Z,1.70
2018-08-11T21:44:19.397Z,1.60
2018-08-11T21:46:47.804Z,1.80
2018-08-11T21:49:16.635Z,1.65
2018-08-11T21:51:45.228Z,1.50
2018-08-11T21:54:14.098Z,1.80
2018-08-11T21:56:42.622Z,1.70
2018-08-11T21:59:11.072Z,1.60
2018-08-11T22:01:40.229Z,1.52
2018-08-11T22:04:08.658Z,1.40
2018-08-11T22:06:37.158Z,1.70
2018-08-11T22:09:10.033Z,1.85
2018-08-11T22:11:38.541Z,1.55
2018-08-11T22:14:07.714Z,1.67
2018-08-11T22:16:36.234Z,1.82
2018-08-11T22:19:04.722Z,1.75
2018-08-11T22:21:33.218Z,1.62
2018-08-11T22:24:01.704Z,2.22
2018-08-11T22:26:30.166Z,2.10
2018-08-11T22:28:58.661Z,3.15
2018-08-11T22:31:27.107Z,2.80
2018-08-11T22:33:55.552Z,2.45
2018-08-11T22:36:24.059Z,2.65
2018-08-11T22:38:53.536Z,2.83
2018-08-11T22:41:21.987Z,2.80
2018-08-11T22:43:50.654Z,2.92
2018-08-11T22:46:19.091Z,2.75
2018-08-11T22:48:47.731Z,2.52
2018-08-11T22:51:16.261Z,2.70
2018-08-11T22:53:44.717Z,2.47
2018-08-11T22:56:13.246Z,2.50
2018-08-11T22:58:41.836Z,4.28
2018-08-11T23:01:10.240Z,2.87
2018-08-11T23:03:38.733Z,3.15
2018-08-11T23:06:07.191Z,2.50
2018-08-11T23:08:35.791Z,2.67
2018-08-11T23:11:04.404Z,2.73
2018-08-11T23:13:32.869Z,2.93
2018-08-11T23:16:04.196Z,2.90
2018-08-11T23:18:32.671Z,2.83
2018-08-11T23:21:01.175Z,3.92
2018-08-11T23:23:29.590Z,3.30
2018-08-11T23:25:57.961Z,3.00
2018-08-11T23:28:26.440Z,3.30
2018-08-11T23:30:54.888Z,3.17
2018-08-11T23:33:23.417Z,2.80
2018-08-11T23:35:51.935Z,2.77
2018-08-11T23:38:20.394Z,2.30
2018-08-11T23:40:48.795Z,2.60
2018-08-11T23:43:17.263Z,2.03
2018-08-11T23:45:45.839Z,2.13
2018-08-11T23:48:14.505Z,2.25
2018-08-11T23:50:42.926Z,2.10
2018-08-11T23:53:11.333Z,2.87
2018-08-11T23:55:39.758Z,2.70
2018-08-11T23:58:08.261Z,2.45
